If you wish to contribute or participate in the discussions about articles you are invited to join SKYbrary as a registered user

 Actions

Cognac-Châteaubernard (BA 709) Air Base

From SKYbrary Wiki

LFBG
Airport
ICAO: LFBG – IATA: CNG
Summary
Name Cognac-Châteaubernard (BA 709) Air Base
Region Europe
Territory France FR.gif
Location , Poitou-Charentes
Serving Cognac
Elevation 31.09 m
102 ft
102 ft31.09 m
Type medium airport
Coordinates 45° 39' 30.00" N, 0° 19' 3.00" W
Runways
Designator Length Width Surface ROPS
5/23 2423 m7,949.475 ft
45 m147.638 ft
PEM /
9/27 1875 m6,151.575 ft
60 m196.85 ft
MAC /


METAR
Observation LFBG 110730Z AUTO 31011KT 9999 -RA FEW014/// SCT033/// OVC049/// ///TCU 08/07 Q1016 TEMPO 4000 SHRA BKN030
Station Cognac
Date/Time 11 December 2019 07:30:00
Wind direction 310°
Wind speed 11 kts
Lowest cloud amount few clouds
Temperature 8°C
Dew point 7°C
Humidity 93%
QNH 1016 hPa
Weather condition light rain